Time;durP1;ratioP1;P1;durP2;ratioP2;P2;SDS_P1;SDS_P2;PMS_P1;PMS_P2;Temp;Humidity;BMP_temperature;BMP_pressure;BME280_temperature;BME280_humidity;BME280_pressure;Samples;Min_cycle;Max_cycle;Signal;HPM_P1;HPM_P2
2021/03/22 00:00:23;;;;;;;18.23;7.33;;;3.50;99.90;;;;;;5051711;28;20231;-79
2021/03/22 00:02:50;;;;;;;19.57;8.30;;;3.40;99.90;;;;;;5051955;28;20702;-79
2021/03/22 00:05:17;;;;;;;13.53;8.23;;;3.30;99.90;;;;;;5051556;28;20204;-79
2021/03/22 00:07:43;;;;;;;19.07;8.83;;;3.20;99.90;;;;;;5049717;28;20231;-79
2021/03/22 00:10:11;;;;;;;15.00;8.33;;;3.20;99.90;;;;;;5051947;28;20285;-79
2021/03/22 00:12:37;;;;;;;17.97;8.23;;;3.10;99.90;;;;;;5043450;28;20232;-79
2021/03/22 00:15:06;;;;;;;15.83;8.50;;;3.00;99.90;;;;;;5052114;28;20239;-79
2021/03/22 00:17:33;;;;;;;17.47;8.53;;;3.00;99.90;;;;;;5043201;28;20261;-79
2021/03/22 00:19:59;;;;;;;20.90;9.13;;;2.90;99.90;;;;;;5032024;28;20255;-79
2021/03/22 00:22:26;;;;;;;18.97;9.10;;;2.80;99.90;;;;;;5031619;28;20994;-79
2021/03/22 00:24:52;;;;;;;20.00;9.10;;;2.80;99.90;;;;;;5032212;28;20343;-79
2021/03/22 00:27:19;;;;;;;15.33;8.23;;;2.70;99.90;;;;;;5031680;28;20742;-78
2021/03/22 00:29:45;;;;;;;21.37;8.53;;;2.60;99.90;;;;;;5033802;28;20232;-79
2021/03/22 00:32:11;;;;;;;16.00;7.73;;;2.50;99.90;;;;;;5051835;28;20223;-79
2021/03/22 00:34:39;;;;;;;17.37;7.80;;;2.50;99.90;;;;;;5051271;28;20218;-79
2021/03/22 00:37:05;;;;;;;16.67;7.23;;;2.50;99.90;;;;;;5051936;28;20239;-79
2021/03/22 00:39:32;;;;;;;15.57;8.03;;;2.40;99.90;;;;;;5051274;28;20273;-79
2021/03/22 00:41:58;;;;;;;17.17;7.77;;;2.30;99.90;;;;;;5051158;28;20679;-79
2021/03/22 00:44:25;;;;;;;17.13;7.83;;;2.30;99.90;;;;;;5051701;28;20234;-79
2021/03/22 00:46:51;;;;;;;16.40;7.40;;;2.30;99.90;;;;;;5051264;28;20671;-79
2021/03/22 00:49:18;;;;;;;16.37;7.87;;;2.20;99.90;;;;;;5051512;28;20680;-79
2021/03/22 00:51:45;;;;;;;18.77;8.00;;;2.20;99.90;;;;;;5043060;28;20317;-79
2021/03/22 00:54:11;;;;;;;13.70;8.00;;;2.20;99.90;;;;;;5051626;28;20643;-79
2021/03/22 00:56:38;;;;;;;17.13;7.90;;;2.20;99.90;;;;;;5052033;28;20238;-79
2021/03/22 00:59:05;;;;;;;17.17;7.57;;;2.10;99.90;;;;;;5055099;28;20263;-78
2021/03/22 01:01:32;;;;;;;17.47;7.63;;;2.10;99.90;;;;;;5053915;28;20606;-79
2021/03/22 01:03:58;;;;;;;14.43;7.50;;;2.10;99.90;;;;;;5054697;28;20246;-79
2021/03/22 01:06:25;;;;;;;13.93;7.60;;;2.00;99.90;;;;;;5054293;28;20235;-79
2021/03/22 01:08:52;;;;;;;17.63;7.80;;;1.90;99.90;;;;;;5044668;28;20228;-79
2021/03/22 01:11:20;;;;;;;16.40;7.67;;;1.90;99.90;;;;;;5054793;28;20199;-78
2021/03/22 01:13:49;;;;;;;14.90;7.57;;;1.80;99.90;;;;;;5044108;28;20249;-79
2021/03/22 01:16:17;;;;;;;16.77;8.23;;;1.90;99.90;;;;;;5054927;28;20204;-79
2021/03/22 01:18:49;;;;;;;19.10;8.70;;;1.80;99.90;;;;;;5053672;28;20247;-78
2021/03/22 01:21:19;;;;;;;16.90;8.60;;;1.90;99.90;;;;;;5054849;28;20199;-78
2021/03/22 01:23:45;;;;;;;17.37;8.27;;;1.80;99.90;;;;;;5037599;28;20242;-78
2021/03/22 01:26:15;;;;;;;19.03;8.70;;;1.80;99.90;;;;;;5034578;28;20597;-78
2021/03/22 01:28:42;;;;;;;18.80;8.80;;;1.80;99.90;;;;;;5034199;28;20235;-78
2021/03/22 01:31:10;;;;;;;15.83;7.87;;;1.70;99.90;;;;;;5034469;28;20198;-79
2021/03/22 01:33:41;;;;;;;15.50;8.70;;;1.80;99.90;;;;;;5034372;28;20210;-78
2021/03/22 01:36:11;;;;;;;18.63;8.80;;;1.80;99.90;;;;;;5034546;28;20240;-78
2021/03/22 01:38:38;;;;;;;19.37;8.87;;;1.80;99.90;;;;;;5047960;28;20218;-78
2021/03/22 01:41:38;;;;;;;15.00;8.93;;;1.80;99.90;;;;;;5053968;28;20200;-79
2021/03/22 01:44:22;;;;;;;16.33;8.53;;;1.60;99.90;;;;;;4973355;28;20241;-78
2021/03/22 01:46:52;;;;;;;17.13;8.33;;;1.50;99.90;;;;;;4973124;28;20240;-78
2021/03/22 01:49:20;;;;;;;19.37;8.57;;;1.40;99.90;;;;;;4973163;28;20284;-78
2021/03/22 01:51:48;;;;;;;23.37;9.30;;;1.50;99.90;;;;;;4973059;28;20205;-79
2021/03/22 01:54:15;;;;;;;18.97;8.83;;;1.50;99.90;;;;;;4972360;28;20299;-79
2021/03/22 01:56:53;;;;;;;16.03;9.10;;;1.50;99.90;;;;;;4972949;28;20217;-78
2021/03/22 01:59:26;;;;;;;21.47;9.00;;;1.40;99.90;;;;;;4972409;28;20721;-78
2021/03/22 02:01:59;;;;;;;19.20;9.83;;;1.40;99.90;;;;;;4972953;28;20296;-78
2021/03/22 02:04:27;;;;;;;15.40;8.83;;;1.40;99.90;;;;;;4972679;28;20636;-78
2021/03/22 02:06:54;;;;;;;20.37;9.97;;;1.30;99.90;;;;;;4972693;28;20697;-78
2021/03/22 02:09:20;;;;;;;19.47;9.80;;;1.40;99.90;;;;;;4961364;28;20234;-78
2021/03/22 02:11:47;;;;;;;17.83;9.83;;;1.50;99.90;;;;;;4964012;28;20705;-78
2021/03/22 02:14:14;;;;;;;20.37;10.37;;;1.50;99.90;;;;;;4959722;28;20235;-79
2021/03/22 02:16:54;;;;;;;19.83;10.50;;;1.50;99.90;;;;;;4971533;28;20270;-78
2021/03/22 02:19:57;;;;;;;16.40;10.07;;;1.30;99.90;;;;;;4960260;28;20654;-78
2021/03/22 02:23:04;;;;;;;15.70;9.10;;;1.00;99.90;;;;;;5025679;28;20303;-79
2021/03/22 02:25:37;;;;;;;16.53;9.70;;;0.80;99.90;;;;;;4953119;29;20239;-78
2021/03/22 02:28:26;;;;;;;16.90;9.73;;;0.70;99.90;;;;;;4953041;29;20648;-78
2021/03/22 02:31:12;;;;;;;19.87;10.20;;;0.80;99.90;;;;;;4937052;29;20260;-78
2021/03/22 02:34:06;;;;;;;16.87;8.87;;;0.70;99.90;;;;;;4921233;29;20248;-78
2021/03/22 02:37:05;;;;;;;17.63;10.07;;;0.60;99.90;;;;;;4924429;29;20244;-78
2021/03/22 02:39:42;;;;;;;20.90;10.53;;;0.60;99.90;;;;;;4933446;29;20727;-78
2021/03/22 02:42:11;;;;;;;21.30;11.30;;;0.70;99.90;;;;;;4933533;29;20807;-78
2021/03/22 02:44:38;;;;;;;23.93;12.07;;;0.90;99.90;;;;;;4933511;29;20278;-77
2021/03/22 02:47:07;;;;;;;25.67;11.97;;;1.00;99.90;;;;;;4933395;29;20248;-78
2021/03/22 02:49:38;;;;;;;22.67;12.13;;;1.00;99.90;;;;;;4934007;29;20232;-78
2021/03/22 02:52:14;;;;;;;21.03;11.77;;;1.00;99.90;;;;;;4933053;29;20656;-78
2021/03/22 02:54:53;;;;;;;22.97;11.60;;;1.00;99.90;;;;;;4933524;29;20228;-79
2021/03/22 02:57:24;;;;;;;21.83;11.73;;;0.90;99.90;;;;;;4917752;29;20206;-78
2021/03/22 02:59:54;;;;;;;21.73;11.97;;;0.80;99.90;;;;;;4949424;29;20232;-78
2021/03/22 03:02:22;;;;;;;25.73;12.67;;;0.80;99.90;;;;;;5001978;28;20231;-78
2021/03/22 03:04:50;;;;;;;19.33;10.80;;;0.70;99.90;;;;;;5032918;28;20232;-78
2021/03/22 03:07:20;;;;;;;15.97;10.13;;;0.60;99.90;;;;;;5032503;28;20239;-77
2021/03/22 03:09:47;;;;;;;18.93;11.17;;;0.50;99.90;;;;;;5037696;28;20224;-78
2021/03/22 03:12:16;;;;;;;20.80;12.40;;;0.40;99.90;;;;;;5046359;28;20253;-78
2021/03/22 03:14:44;;;;;;;20.83;11.97;;;0.50;99.90;;;;;;5048659;28;20234;-78
2021/03/22 03:17:11;;;;;;;29.30;12.50;;;0.70;99.90;;;;;;5051898;28;20252;-78
2021/03/22 03:19:37;;;;;;;21.67;11.80;;;0.80;99.90;;;;;;5051290;28;20728;-78
2021/03/22 03:22:06;;;;;;;22.30;11.90;;;0.80;99.90;;;;;;5051888;28;20263;-78
2021/03/22 03:24:34;;;;;;;20.20;11.97;;;0.80;99.90;;;;;;5052322;28;20229;-78
2021/03/22 03:27:00;;;;;;;24.67;11.80;;;0.70;99.90;;;;;;5052131;28;20248;-78
2021/03/22 03:29:27;;;;;;;20.90;11.23;;;0.60;99.90;;;;;;5052304;28;20581;-78
2021/03/22 03:31:53;;;;;;;17.93;10.40;;;0.50;99.90;;;;;;5052205;28;20610;-78
2021/03/22 03:34:19;;;;;;;16.60;8.93;;;0.40;99.90;;;;;;5052042;28;20232;-78
2021/03/22 03:36:46;;;;;;;14.50;8.67;;;0.30;99.90;;;;;;5038990;28;20707;-78
2021/03/22 03:39:13;;;;;;;14.13;8.07;;;0.10;99.90;;;;;;5035432;28;20221;-78
2021/03/22 03:41:40;;;;;;;12.60;8.17;;;0.00;99.90;;;;;;5050929;28;20207;-78
2021/03/22 03:44:09;;;;;;;13.00;7.47;;;-0.10;99.90;;;;;;5052213;28;20204;-78
2021/03/22 03:46:36;;;;;;;14.07;7.23;;;-0.20;99.90;;;;;;5044792;28;20240;-78
2021/03/22 03:49:03;;;;;;;13.63;7.60;;;-0.20;99.90;;;;;;5032426;28;20205;-78
2021/03/22 03:51:30;;;;;;;14.77;7.57;;;-0.20;99.90;;;;;;5038322;28;20243;-78
2021/03/22 03:53:57;;;;;;;14.30;8.40;;;-0.30;99.90;;;;;;5050201;28;20199;-78
2021/03/22 03:56:25;;;;;;;15.43;9.37;;;-0.30;99.90;;;;;;5033529;28;20247;-78
2021/03/22 03:58:52;;;;;;;16.57;9.03;;;-0.30;99.90;;;;;;5031729;28;20717;-77
2021/03/22 04:01:18;;;;;;;14.20;8.13;;;-0.20;99.90;;;;;;5047253;28;20196;-78
2021/03/22 04:03:45;;;;;;;15.47;8.27;;;-0.30;99.90;;;;;;5052285;28;20242;-78
2021/03/22 04:06:15;;;;;;;16.40;8.50;;;-0.30;99.90;;;;;;5052005;28;20257;-78
2021/03/22 04:08:43;;;;;;;13.23;7.80;;;-0.40;99.90;;;;;;5052187;28;20551;-78
2021/03/22 04:11:12;;;;;;;14.03;8.17;;;-0.50;99.90;;;;;;5051475;28;20201;-78
2021/03/22 04:13:40;;;;;;;15.33;8.30;;;-0.50;99.90;;;;;;5049570;28;20203;-78
2021/03/22 04:16:09;;;;;;;15.07;8.73;;;-0.40;99.90;;;;;;5042083;28;20206;-78
2021/03/22 04:18:36;;;;;;;18.57;9.87;;;-0.50;99.90;;;;;;5051730;28;20251;-77
2021/03/22 04:21:04;;;;;;;17.60;9.40;;;-0.40;99.90;;;;;;5051900;28;20663;-78
2021/03/22 04:23:31;;;;;;;17.27;9.43;;;-0.40;99.90;;;;;;5050513;28;20275;-78
2021/03/22 04:25:57;;;;;;;16.33;9.53;;;-0.40;99.90;;;;;;5052109;28;20246;-78
2021/03/22 04:28:24;;;;;;;19.33;10.50;;;-0.40;99.90;;;;;;5051673;28;20200;-78
2021/03/22 04:30:51;;;;;;;19.50;10.53;;;-0.30;99.90;;;;;;5051940;28;20239;-78
2021/03/22 04:33:18;;;;;;;17.90;10.03;;;-0.10;99.90;;;;;;5055547;28;20276;-78
2021/03/22 04:35:44;;;;;;;16.87;9.70;;;-0.20;99.90;;;;;;5055043;28;20671;-78
2021/03/22 04:38:10;;;;;;;16.90;9.60;;;-0.30;99.90;;;;;;5055680;28;20211;-78
2021/03/22 04:40:37;;;;;;;18.77;10.20;;;-0.40;99.90;;;;;;5055606;28;20267;-78
2021/03/22 04:43:03;;;;;;;16.03;9.60;;;-0.50;99.90;;;;;;5055312;28;20667;-78
2021/03/22 04:45:31;;;;;;;14.70;9.07;;;-0.50;99.90;;;;;;5042545;28;20234;-78
2021/03/22 04:47:58;;;;;;;18.60;9.20;;;-0.50;99.90;;;;;;5055216;28;20229;-78
2021/03/22 04:50:27;;;;;;;17.63;8.77;;;-0.50;99.90;;;;;;5055041;28;20232;-78
2021/03/22 04:52:54;;;;;;;14.00;8.57;;;-0.50;99.90;;;;;;5055178;28;20688;-78
2021/03/22 04:55:23;;;;;;;14.77;9.20;;;-0.60;99.90;;;;;;5054585;28;20199;-78
2021/03/22 04:57:50;;;;;;;15.70;8.50;;;-0.60;99.90;;;;;;5054913;28;20197;-78
2021/03/22 05:00:20;;;;;;;21.67;9.07;;;-0.60;99.90;;;;;;5054942;28;20235;-78
2021/03/22 05:02:47;;;;;;;14.63;8.70;;;-0.60;99.90;;;;;;5054963;28;20207;-78
2021/03/22 05:05:15;;;;;;;15.70;8.80;;;-0.60;99.90;;;;;;5054906;28;20245;-77
2021/03/22 05:07:42;;;;;;;14.70;9.10;;;-0.60;99.90;;;;;;5054835;28;20242;-78
2021/03/22 05:10:11;;;;;;;13.60;8.73;;;-0.70;99.90;;;;;;5055178;28;20195;-78
2021/03/22 05:12:37;;;;;;;18.00;8.13;;;-0.70;99.90;;;;;;5054866;28;20236;-78
2021/03/22 05:15:05;;;;;;;17.87;8.57;;;-0.70;99.90;;;;;;5035818;28;20208;-78
2021/03/22 05:17:32;;;;;;;14.43;8.47;;;-0.80;99.90;;;;;;5042730;28;20255;-77
2021/03/22 05:19:58;;;;;;;17.23;8.73;;;-0.80;99.90;;;;;;5054675;28;20622;-78
2021/03/22 05:22:25;;;;;;;13.33;7.77;;;-0.80;99.90;;;;;;5054603;28;20282;-78
2021/03/22 05:24:52;;;;;;;13.80;7.20;;;-0.80;99.90;;;;;;5054718;28;20290;-78
2021/03/22 05:27:18;;;;;;;12.40;7.80;;;-0.90;99.90;;;;;;5054932;28;20231;-78
2021/03/22 05:29:44;;;;;;;12.20;7.43;;;-0.90;99.90;;;;;;5054568;28;20246;-78
2021/03/22 05:32:29;;;;;;;14.90;8.00;;;-0.90;99.90;;;;;;5054216;28;20243;-78
2021/03/22 05:34:55;;;;;;;13.43;7.77;;;-0.90;99.90;;;;;;5054469;28;20231;-78
2021/03/22 05:37:22;;;;;;;13.00;7.53;;;-0.90;99.90;;;;;;5053031;28;20683;-78
2021/03/22 05:39:49;;;;;;;15.80;7.93;;;-0.90;99.90;;;;;;5054150;28;20263;-78
2021/03/22 05:42:30;;;;;;;18.20;8.70;;;-0.90;99.90;;;;;;5054732;28;20541;-77
2021/03/22 05:45:01;;;;;;;13.03;7.80;;;-0.90;99.90;;;;;;5054179;28;20204;-78
2021/03/22 05:47:39;;;;;;;17.50;8.13;;;-0.90;99.90;;;;;;5053174;28;20222;-78
2021/03/22 05:50:15;;;;;;;12.33;7.57;;;-0.90;99.90;;;;;;5053752;28;20242;-78
2021/03/22 05:53:09;;;;;;;14.33;8.67;;;-0.90;99.90;;;;;;5043349;28;20231;-79
2021/03/22 05:55:52;;;;;;;14.77;9.73;;;-0.90;99.90;;;;;;5034184;28;20227;-78
2021/03/22 05:58:48;;;;;;;13.80;7.83;;;-0.80;99.90;;;;;;5033661;28;20200;-78
2021/03/22 06:01:36;;;;;;;14.17;7.30;;;-1.00;99.90;;;;;;5034578;28;20204;-78
2021/03/22 06:04:06;;;;;;;12.53;7.60;;;-0.90;99.90;;;;;;5051622;28;20204;-79
2021/03/22 06:06:36;;;;;;;14.87;7.40;;;-0.70;99.90;;;;;;5047632;28;20246;-75
2021/03/22 06:09:15;;;;;;;15.97;7.67;;;-0.40;99.90;;;;;;5050598;28;20204;-80
2021/03/22 06:11:52;;;;;;;12.17;7.33;;;-0.30;99.90;;;;;;5034013;28;20223;-79
2021/03/22 06:14:26;;;;;;;17.97;7.80;;;-0.20;99.90;;;;;;5035265;28;20200;-80
2021/03/22 06:17:00;;;;;;;13.50;7.47;;;-0.20;99.90;;;;;;5049639;28;20239;-80
2021/03/22 06:19:29;;;;;;;12.20;7.30;;;-0.20;99.90;;;;;;5033622;28;20266;-79
2021/03/22 06:21:56;;;;;;;15.93;7.93;;;-0.10;99.90;;;;;;5034297;28;20260;-78
2021/03/22 06:24:26;;;;;;;15.67;8.50;;;0.00;99.90;;;;;;5053887;28;20223;-78
2021/03/22 06:26:55;;;;;;;20.13;8.57;;;0.10;99.90;;;;;;5050049;28;20722;-76
2021/03/22 06:29:26;;;;;;;15.73;9.23;;;0.30;99.90;;;;;;5050611;28;20234;-77
2021/03/22 06:31:57;;;;;;;17.00;8.07;;;0.30;99.90;;;;;;5053001;28;20200;-78
2021/03/22 06:34:34;;;;;;;14.80;8.37;;;0.30;99.90;;;;;;5048937;28;20251;-78
2021/03/22 06:37:01;;;;;;;16.37;8.47;;;0.40;99.90;;;;;;5044175;28;20245;-78
2021/03/22 06:39:27;;;;;;;14.50;8.20;;;0.50;99.90;;;;;;5047083;28;20706;-79
2021/03/22 06:41:55;;;;;;;18.70;8.63;;;0.70;99.90;;;;;;5043718;28;20279;-78
2021/03/22 06:44:39;;;;;;;15.53;8.90;;;0.80;99.90;;;;;;5044451;28;20208;-77
2021/03/22 06:47:18;;;;;;;18.30;8.07;;;0.80;99.90;;;;;;5033286;28;20255;-78
2021/03/22 06:49:53;;;;;;;13.43;7.87;;;0.90;99.90;;;;;;5042922;28;20230;-77
2021/03/22 06:52:22;;;;;;;17.43;8.67;;;1.00;99.90;;;;;;5042321;28;20227;-77
2021/03/22 06:54:50;;;;;;;12.37;7.60;;;1.10;99.90;;;;;;5043764;28;20565;-78
2021/03/22 06:57:19;;;;;;;10.50;7.57;;;1.10;99.90;;;;;;5042931;28;20228;-77
2021/03/22 07:00:11;;;;;;;13.30;7.53;;;1.00;99.90;;;;;;5051074;28;20245;-77
2021/03/22 07:02:43;;;;;;;11.20;7.17;;;0.80;99.90;;;;;;5041304;28;20575;-77
2021/03/22 07:05:22;;;;;;;11.23;7.57;;;0.70;99.90;;;;;;5040961;28;20197;-77
2021/03/22 07:07:54;;;;;;;12.57;7.50;;;0.80;99.90;;;;;;5046307;28;20204;-77
2021/03/22 07:10:22;;;;;;;11.53;7.33;;;1.00;99.90;;;;;;5041774;28;20200;-77
2021/03/22 07:13:05;;;;;;;13.30;8.20;;;1.40;99.90;;;;;;5052053;28;20298;-77
2021/03/22 07:15:33;;;;;;;17.80;8.20;;;1.80;99.90;;;;;;5032516;28;20213;-77
2021/03/22 07:18:02;;;;;;;17.13;8.40;;;2.30;99.90;;;;;;5032451;28;20216;-77
2021/03/22 07:20:30;;;;;;;15.43;9.37;;;3.50;99.90;;;;;;5032231;28;20252;-78
2021/03/22 07:23:13;;;;;;;12.93;8.00;;;4.90;99.90;;;;;;5032331;28;20278;-78
2021/03/22 07:25:45;;;;;;;12.07;7.50;;;6.10;99.90;;;;;;5032515;28;20242;-78
2021/03/22 07:28:20;;;;;;;14.90;7.60;;;6.30;99.90;;;;;;5042134;28;20195;-78
2021/03/22 07:30:53;;;;;;;10.13;6.30;;;6.30;99.90;;;;;;5048237;28;20236;-79
2021/03/22 07:33:31;;;;;;;10.93;6.47;;;7.30;99.90;;;;;;5044962;28;20231;-79
2021/03/22 07:36:18;;;;;;;15.13;6.60;;;7.60;99.90;;;;;;5038673;28;20635;-78
2021/03/22 07:39:03;;;;;;;10.30;5.50;;;8.10;99.90;;;;;;5050841;28;20253;-79
2021/03/22 07:41:38;;;;;;;12.60;5.63;;;8.70;99.90;;;;;;5048651;28;20199;-82
2021/03/22 07:44:26;;;;;;;11.80;5.50;;;8.80;99.90;;;;;;5045905;28;20192;-81
2021/03/22 07:47:09;;;;;;;13.57;5.80;;;8.10;99.90;;;;;;5050766;28;20668;-79
2021/03/22 07:49:50;;;;;;;11.50;5.80;;;7.70;99.90;;;;;;5050632;28;20633;-80
2021/03/22 07:52:32;;;;;;;18.10;6.27;;;7.40;99.90;;;;;;5045456;28;20203;-82
2021/03/22 07:55:16;;;;;;;13.43;6.50;;;7.90;99.90;;;;;;5037330;28;20196;-79
2021/03/22 07:57:48;;;;;;;11.93;5.40;;;9.40;99.90;;;;;;5047284;28;20207;-79
2021/03/22 08:00:22;;;;;;;11.47;6.80;;;10.20;99.90;;;;;;5037159;28;20222;-80
2021/03/22 08:03:12;;;;;;;14.13;7.60;;;9.60;99.90;;;;;;5044839;28;20202;-79
2021/03/22 08:05:53;;;;;;;11.73;7.47;;;9.10;99.90;;;;;;5051218;28;20191;-79
2021/03/22 08:08:30;;;;;;;17.33;8.00;;;8.40;99.90;;;;;;5044473;28;20664;-79
2021/03/22 08:11:02;;;;;;;15.70;9.57;;;7.90;99.90;;;;;;5035813;28;20621;-78
2021/03/22 08:13:41;;;;;;;13.67;9.13;;;7.90;99.90;;;;;;5050622;28;20686;-79
2021/03/22 08:16:39;;;;;;;15.13;9.67;;;7.60;99.90;;;;;;5049839;28;20215;-79
2021/03/22 08:19:13;;;;;;;17.00;9.40;;;7.50;99.90;;;;;;5035246;28;20706;-79
2021/03/22 08:21:45;;;;;;;17.07;9.47;;;7.50;99.90;;;;;;5049762;28;20313;-79
2021/03/22 08:24:19;;;;;;;18.27;9.70;;;7.50;99.90;;;;;;5039059;28;20234;-79
2021/03/22 08:26:54;;;;;;;15.30;8.57;;;7.80;99.90;;;;;;5042124;28;20203;-80
2021/03/22 08:29:25;;;;;;;12.73;7.73;;;9.30;99.90;;;;;;5042586;28;20227;-79
2021/03/22 08:32:02;;;;;;;12.90;6.90;;;10.80;99.90;;;;;;5054482;28;20638;-89
2021/03/22 08:34:38;;;;;;;12.17;5.90;;;11.40;99.90;;;;;;5036301;28;20204;-79
2021/03/22 08:37:10;;;;;;;15.47;6.80;;;11.50;99.90;;;;;;5041421;28;20679;-81
2021/03/22 08:39:41;;;;;;;12.27;6.17;;;12.10;99.90;;;;;;5052825;28;20593;-80
2021/03/22 08:42:14;;;;;;;10.27;6.77;;;10.90;99.90;;;;;;5054581;28;20336;-81
2021/03/22 08:44:45;;;;;;;11.50;7.07;;;10.10;99.90;;;;;;5050284;28;20679;-79
2021/03/22 08:47:34;;;;;;;12.57;7.27;;;10.30;99.90;;;;;;5054590;28;20333;-79
2021/03/22 08:50:04;;;;;;;16.13;7.13;;;10.70;99.90;;;;;;5041525;28;20192;-80
2021/03/22 08:52:33;;;;;;;9.70;6.47;;;11.70;99.90;;;;;;5054895;28;20234;-80
2021/03/22 08:55:08;;;;;;;11.63;6.97;;;12.10;99.90;;;;;;5046340;28;20915;-81
2021/03/22 08:57:52;;;;;;;17.30;7.77;;;10.90;99.90;;;;;;5045021;28;20235;-79
2021/03/22 09:00:32;;;;;;;12.83;6.87;;;11.50;99.90;;;;;;5048018;28;20258;-79
2021/03/22 09:03:02;;;;;;;11.80;7.00;;;11.70;99.90;;;;;;5054359;28;20195;-81
2021/03/22 09:05:32;;;;;;;15.53;7.03;;;11.80;99.90;;;;;;5041836;28;20207;-81
2021/03/22 09:08:19;;;;;;;13.10;6.33;;;12.00;99.90;;;;;;5050694;28;20235;-80
2021/03/22 09:10:47;;;;;;;12.33;6.90;;;12.40;99.90;;;;;;5039723;28;20241;-80
2021/03/22 09:13:30;;;;;;;13.00;6.90;;;12.50;99.90;;;;;;5044911;28;20680;-81
2021/03/22 09:16:21;;;;;;;12.73;6.90;;;12.40;99.90;;;;;;5048201;28;20196;-81
2021/03/22 09:19:45;;;;;;;13.43;7.23;;;13.00;99.90;;;;;;5034020;28;20223;-81
2021/03/22 09:22:43;;;;;;;11.83;7.10;;;13.80;99.90;;;;;;5034003;28;20232;-80
2021/03/22 09:25:13;;;;;;;13.30;6.57;;;13.50;99.90;;;;;;5045656;28;20229;-80
2021/03/22 09:27:40;;;;;;;14.63;7.07;;;13.90;99.90;;;;;;5034588;28;20200;-80
2021/03/22 09:30:40;;;;;;;12.83;6.80;;;12.40;99.90;;;;;;5050004;28;20222;-80
2021/03/22 09:33:07;;;;;;;12.57;6.23;;;12.70;99.90;;;;;;4958701;28;20199;-80
2021/03/22 09:36:05;;;;;;;11.60;7.00;;;11.90;99.90;;;;;;4957780;28;20212;-79
2021/03/22 09:38:42;;;;;;;13.97;7.30;;;11.70;99.90;;;;;;4962809;28;20238;-80
2021/03/22 09:41:09;;;;;;;12.07;6.87;;;12.40;99.90;;;;;;4972997;28;20273;-81
2021/03/22 09:43:42;;;;;;;15.83;6.97;;;13.30;99.90;;;;;;4969251;28;20230;-81
2021/03/22 09:46:34;;;;;;;10.07;7.00;;;13.70;99.90;;;;;;4962161;28;20239;-81
2021/03/22 09:49:28;;;;;;;12.97;7.13;;;13.80;99.90;;;;;;4972419;28;20209;-81
2021/03/22 09:52:26;;;;;;;9.93;5.77;;;13.50;99.90;;;;;;4960775;28;20625;-80
2021/03/22 09:54:53;;;;;;;11.57;6.17;;;13.20;99.90;;;;;;4957246;28;20342;-79
2021/03/22 09:57:39;;;;;;;13.73;7.00;;;13.90;99.90;;;;;;4966178;28;20233;-78
2021/03/22 10:00:42;;;;;;;18.07;7.03;;;14.10;99.90;;;;;;4967299;28;20218;-78
2021/03/22 10:03:32;;;;;;;11.90;6.90;;;14.80;99.90;;;;;;4973939;28;20234;-78
2021/03/22 10:06:01;;;;;;;11.63;6.33;;;15.30;99.90;;;;;;5044252;28;20206;-79
2021/03/22 10:08:33;;;;;;;12.88;7.25;;;15.30;99.90;;;;;;5050136;28;20192;-78
2021/03/22 10:11:01;;;;;;;11.35;7.40;;;15.90;99.90;;;;;;5045614;28;20277;-78
2021/03/22 10:13:30;;;;;;;12.18;6.85;;;16.30;99.90;;;;;;5044238;28;20274;-78
2021/03/22 10:16:02;;;;;;;13.18;6.93;;;15.20;99.90;;;;;;5044546;28;20228;-78
2021/03/22 10:18:34;;;;;;;13.77;6.40;;;15.10;99.90;;;;;;5043952;28;20259;-78
2021/03/22 10:21:13;;;;;;;11.90;6.63;;;13.90;99.90;;;;;;5044786;28;20208;-78
2021/03/22 10:23:57;;;;;;;13.30;6.43;;;14.40;99.90;;;;;;5024936;28;20239;-78
2021/03/22 10:26:28;;;;;;;9.90;6.30;;;14.60;99.90;;;;;;5038369;28;20842;-77
2021/03/22 10:29:12;;;;;;;13.20;6.23;;;12.60;99.90;;;;;;5042692;28;20203;-78
2021/03/22 10:31:40;;;;;;;12.17;6.90;;;11.60;99.90;;;;;;5040111;28;20208;-78
2021/03/22 10:34:06;;;;;;;10.77;6.60;;;11.40;99.90;;;;;;5037567;28;20952;-79
2021/03/22 10:36:35;;;;;;;11.53;5.70;;;13.50;99.90;;;;;;5036905;28;20231;-78
2021/03/22 10:39:06;;;;;;;12.40;5.40;;;14.40;99.90;;;;;;5035914;28;20230;-79
2021/03/22 10:41:35;;;;;;;10.67;6.03;;;13.70;99.90;;;;;;5043722;28;20227;-79
2021/03/22 10:44:05;;;;;;;12.57;6.33;;;13.70;99.90;;;;;;5026632;28;20236;-78
2021/03/22 10:46:33;;;;;;;12.13;6.63;;;13.90;99.90;;;;;;5044682;28;20231;-79
2021/03/22 10:49:04;;;;;;;14.23;6.53;;;14.70;99.90;;;;;;5044801;28;20243;-78
2021/03/22 10:51:43;;;;;;;12.00;5.70;;;14.00;99.90;;;;;;5041413;28;20664;-78
2021/03/22 10:54:13;;;;;;;13.30;6.20;;;14.50;99.90;;;;;;5030077;28;20201;-79
2021/03/22 10:56:48;;;;;;;11.47;5.83;;;15.20;99.90;;;;;;5044457;28;20196;-78
2021/03/22 10:59:19;;;;;;;11.60;5.63;;;15.60;99.90;;;;;;5044489;28;20497;-79
2021/03/22 11:01:46;;;;;;;11.17;5.87;;;14.90;99.90;;;;;;5023788;28;20192;-79
2021/03/22 11:04:17;;;;;;;9.43;5.60;;;14.20;99.90;;;;;;5049610;28;20576;-79
2021/03/22 11:06:47;;;;;;;9.10;5.30;;;14.70;99.90;;;;;;5040471;28;20211;-79
2021/03/22 11:09:32;;;;;;;11.35;5.38;;;15.50;99.90;;;;;;5052691;28;20235;-79
2021/03/22 11:12:00;;;;;;;10.57;6.07;;;14.90;99.90;;;;;;5041039;28;20342;-79
2021/03/22 11:14:30;;;;;;;10.10;5.77;;;14.10;99.90;;;;;;5032630;28;20204;-79
2021/03/22 11:17:00;;;;;;;8.30;5.17;;;14.80;99.90;;;;;;5032976;28;20224;-79
2021/03/22 11:19:31;;;;;;;10.40;6.00;;;13.70;99.90;;;;;;5045548;28;20238;-79
2021/03/22 11:22:00;;;;;;;10.37;5.40;;;13.60;99.90;;;;;;5026120;28;20236;-79
2021/03/22 11:24:41;;;;;;;10.83;5.23;;;12.10;99.90;;;;;;5027962;28;20200;-79
2021/03/22 11:27:10;;;;;;;9.73;5.50;;;13.50;99.90;;;;;;5015560;28;20239;-79
2021/03/22 11:29:50;;;;;;;12.27;5.20;;;15.40;99.90;;;;;;5030955;28;20282;-79
2021/03/22 11:32:20;;;;;;;9.37;5.50;;;15.10;99.90;;;;;;5013984;28;20669;-79
2021/03/22 11:34:47;;;;;;;10.50;5.60;;;13.70;99.90;;;;;;5025554;28;20216;-80
2021/03/22 11:37:19;;;;;;;8.90;5.20;;;14.00;99.90;;;;;;5031003;28;20211;-79
2021/03/22 11:39:47;;;;;;;10.27;5.53;;;15.80;99.90;;;;;;5031802;28;20254;-79
2021/03/22 11:42:20;;;;;;;10.83;5.67;;;14.60;99.90;;;;;;5031367;28;20196;-79
2021/03/22 11:44:47;;;;;;;10.70;5.90;;;13.20;99.90;;;;;;5025041;28;20232;-79
2021/03/22 11:47:28;;;;;;;10.47;5.70;;;12.10;99.90;;;;;;5030978;28;20239;-79
2021/03/22 11:49:55;;;;;;;11.30;5.43;;;13.30;99.90;;;;;;5030856;28;20251;-79
2021/03/22 11:52:24;;;;;;;9.63;5.23;;;14.40;99.90;;;;;;5031586;28;20208;-79
2021/03/22 11:54:55;;;;;;;10.87;5.30;;;14.90;99.90;;;;;;5031997;28;20235;-79
2021/03/22 11:57:27;;;;;;;11.10;5.00;;;15.50;99.90;;;;;;5015320;28;20205;-79
2021/03/22 11:59:56;;;;;;;12.63;5.33;;;15.70;99.90;;;;;;5013828;28;20209;-79
2021/03/22 12:02:33;;;;;;;11.20;5.30;;;14.30;99.90;;;;;;5013542;28;20205;-79
2021/03/22 12:05:04;;;;;;;11.20;5.03;;;13.70;99.90;;;;;;5011922;28;20284;-78
2021/03/22 12:07:47;;;;;;;9.97;5.30;;;13.30;99.90;;;;;;5011803;28;20201;-79
2021/03/22 12:10:22;;;;;;;10.13;5.37;;;13.30;99.90;;;;;;5012085;28;20200;-78
2021/03/22 12:12:49;;;;;;;9.47;4.90;;;12.60;99.90;;;;;;5021674;28;20195;-79
2021/03/22 12:15:17;;;;;;;11.00;5.37;;;13.70;99.90;;;;;;5016834;28;20210;-79
2021/03/22 12:17:45;;;;;;;11.37;5.40;;;14.90;99.90;;;;;;5027986;28;20240;-78
2021/03/22 12:20:21;;;;;;;18.43;6.40;;;14.10;99.90;;;;;;5019274;28;20255;-79
2021/03/22 12:22:47;;;;;;;16.53;6.17;;;13.50;99.90;;;;;;5042028;28;20238;-79
2021/03/22 12:25:21;;;;;;;13.93;5.43;;;13.00;99.90;;;;;;5047307;28;20201;-80
2021/03/22 12:27:47;;;;;;;9.30;5.47;;;12.90;99.90;;;;;;5034459;28;20197;-80
2021/03/22 12:30:15;;;;;;;12.30;5.37;;;12.60;99.90;;;;;;5047211;28;20671;-79
2021/03/22 12:32:44;;;;;;;11.30;5.77;;;12.20;99.90;;;;;;5042515;28;20298;-78
2021/03/22 12:35:16;;;;;;;12.27;6.00;;;12.50;99.90;;;;;;5042989;28;20254;-78
2021/03/22 12:37:44;;;;;;;10.93;5.70;;;12.40;99.90;;;;;;5041013;28;20227;-79
2021/03/22 12:40:13;;;;;;;11.77;5.73;;;12.50;99.90;;;;;;5039071;28;20759;-78
2021/03/22 12:42:43;;;;;;;11.20;5.70;;;12.30;99.90;;;;;;5040225;28;20555;-78
2021/03/22 12:45:18;;;;;;;8.47;5.30;;;12.10;99.90;;;;;;5038667;28;20200;-78
2021/03/22 12:47:45;;;;;;;11.40;5.50;;;14.50;99.90;;;;;;5043981;28;20228;-78
2021/03/22 12:50:19;;;;;;;10.10;5.40;;;14.20;99.90;;;;;;5042235;28;20220;-78
2021/03/22 12:52:48;;;;;;;11.37;5.50;;;14.00;99.90;;;;;;5042833;28;20273;-79
2021/03/22 12:55:15;;;;;;;10.70;5.90;;;12.70;99.90;;;;;;5045990;28;20560;-78
2021/03/22 12:57:42;;;;;;;11.03;5.50;;;12.50;99.90;;;;;;5043456;28;20676;-78
2021/03/22 13:00:11;;;;;;;9.67;5.33;;;12.20;99.90;;;;;;5045746;28;20610;-78
2021/03/22 13:02:39;;;;;;;10.03;5.43;;;12.00;99.90;;;;;;5050033;28;20594;-78
2021/03/22 13:05:14;;;;;;;10.10;5.97;;;12.50;99.90;;;;;;5030370;28;20655;-78
2021/03/22 13:07:41;;;;;;;12.27;5.73;;;12.60;99.90;;;;;;5039519;28;20200;-79